sensor_id;sensor_type;location;lat;lon;timestamp;P1;durP1;ratioP1;P2;durP2;ratioP2
14102;SDS011;7129;48.832;12.472;2022-08-01T00:03:51;2.30;;;2.10;;
14102;SDS011;7129;48.832;12.472;2022-08-01T00:08:54;2.20;;;2.00;;
14102;SDS011;7129;48.832;12.472;2022-08-01T00:13:57;2.47;;;2.28;;
14102;SDS011;7129;48.832;12.472;2022-08-01T00:18:59;5.60;;;2.20;;
14102;SDS011;7129;48.832;12.472;2022-08-01T00:24:01;2.10;;;1.90;;
14102;SDS011;7129;48.832;12.472;2022-08-01T00:29:04;2.10;;;1.90;;
14102;SDS011;7129;48.832;12.472;2022-08-01T00:34:06;2.10;;;2.00;;
14102;SDS011;7129;48.832;12.472;2022-08-01T00:39:08;3.05;;;2.33;;
14102;SDS011;7129;48.832;12.472;2022-08-01T00:44:11;4.80;;;2.28;;
14102;SDS011;7129;48.832;12.472;2022-08-01T00:49:13;2.03;;;1.92;;
14102;SDS011;7129;48.832;12.472;2022-08-01T00:54:15;3.03;;;2.30;;
14102;SDS011;7129;48.832;12.472;2022-08-01T00:59:18;2.35;;;2.15;;
14102;SDS011;7129;48.832;12.472;2022-08-01T01:04:25;2.88;;;2.60;;
14102;SDS011;7129;48.832;12.472;2022-08-01T01:09:30;2.28;;;2.17;;
14102;SDS011;7129;48.832;12.472;2022-08-01T01:14:44;3.38;;;2.28;;
14102;SDS011;7129;48.832;12.472;2022-08-01T01:19:52;2.63;;;2.40;;
14102;SDS011;7129;48.832;12.472;2022-08-01T01:25:02;2.55;;;2.38;;
14102;SDS011;7129;48.832;12.472;2022-08-01T01:30:11;2.55;;;2.45;;
14102;SDS011;7129;48.832;12.472;2022-08-01T01:35:15;2.83;;;2.53;;
14102;SDS011;7129;48.832;12.472;2022-08-01T01:40:20;2.67;;;2.47;;
14102;SDS011;7129;48.832;12.472;2022-08-01T01:45:26;2.85;;;2.65;;
14102;SDS011;7129;48.832;12.472;2022-08-01T01:50:29;3.08;;;2.60;;
14102;SDS011;7129;48.832;12.472;2022-08-01T01:55:31;2.45;;;2.35;;
14102;SDS011;7129;48.832;12.472;2022-08-01T02:00:37;3.25;;;2.55;;
14102;SDS011;7129;48.832;12.472;2022-08-01T02:05:39;4.90;;;2.38;;
14102;SDS011;7129;48.832;12.472;2022-08-01T02:10:44;2.60;;;2.40;;
14102;SDS011;7129;48.832;12.472;2022-08-01T02:16:09;3.63;;;2.90;;
14102;SDS011;7129;48.832;12.472;2022-08-01T02:21:13;2.53;;;2.35;;
14102;SDS011;7129;48.832;12.472;2022-08-01T02:26:21;2.70;;;2.50;;
14102;SDS011;7129;48.832;12.472;2022-08-01T02:31:26;2.63;;;2.42;;
14102;SDS011;7129;48.832;12.472;2022-08-01T02:36:33;3.30;;;2.80;;
14102;SDS011;7129;48.832;12.472;2022-08-01T02:41:38;4.28;;;2.97;;
14102;SDS011;7129;48.832;12.472;2022-08-01T02:46:52;3.25;;;2.50;;
14102;SDS011;7129;48.832;12.472;2022-08-01T02:51:58;2.65;;;2.50;;
14102;SDS011;7129;48.832;12.472;2022-08-01T02:57:02;3.17;;;2.90;;
14102;SDS011;7129;48.832;12.472;2022-08-01T03:02:08;3.08;;;2.80;;
14102;SDS011;7129;48.832;12.472;2022-08-01T03:07:12;3.42;;;3.13;;
14102;SDS011;7129;48.832;12.472;2022-08-01T03:12:22;3.03;;;2.83;;
14102;SDS011;7129;48.832;12.472;2022-08-01T03:17:28;2.92;;;2.72;;
14102;SDS011;7129;48.832;12.472;2022-08-01T03:22:31;3.67;;;3.38;;
14102;SDS011;7129;48.832;12.472;2022-08-01T03:27:35;4.93;;;3.40;;
14102;SDS011;7129;48.832;12.472;2022-08-01T03:32:40;4.28;;;2.95;;
14102;SDS011;7129;48.832;12.472;2022-08-01T03:37:42;2.65;;;2.45;;
14102;SDS011;7129;48.832;12.472;2022-08-01T03:42:47;3.10;;;2.88;;
14102;SDS011;7129;48.832;12.472;2022-08-01T03:47:55;3.28;;;2.72;;
14102;SDS011;7129;48.832;12.472;2022-08-01T03:53:01;3.15;;;2.90;;
14102;SDS011;7129;48.832;12.472;2022-08-01T03:58:04;4.60;;;2.65;;
14102;SDS011;7129;48.832;12.472;2022-08-01T04:03:08;3.60;;;2.58;;
14102;SDS011;7129;48.832;12.472;2022-08-01T04:08:11;2.65;;;2.45;;
14102;SDS011;7129;48.832;12.472;2022-08-01T04:13:13;3.03;;;2.78;;
14102;SDS011;7129;48.832;12.472;2022-08-01T04:18:24;2.88;;;2.65;;
14102;SDS011;7129;48.832;12.472;2022-08-01T04:28:36;4.35;;;2.47;;
14102;SDS011;7129;48.832;12.472;2022-08-01T04:40:02;3.17;;;2.40;;
14102;SDS011;7129;48.832;12.472;2022-08-01T04:45:21;2.45;;;2.25;;
14102;SDS011;7129;48.832;12.472;2022-08-01T04:50:42;2.83;;;2.35;;
14102;SDS011;7129;48.832;12.472;2022-08-01T04:55:47;2.30;;;2.20;;
14102;SDS011;7129;48.832;12.472;2022-08-01T05:01:40;2.58;;;2.38;;
14102;SDS011;7129;48.832;12.472;2022-08-01T05:06:46;2.67;;;2.47;;
14102;SDS011;7129;48.832;12.472;2022-08-01T05:11:58;2.35;;;2.15;;
14102;SDS011;7129;48.832;12.472;2022-08-01T05:17:14;3.40;;;2.50;;
14102;SDS011;7129;48.832;12.472;2022-08-01T05:22:37;2.53;;;2.33;;
14102;SDS011;7129;48.832;12.472;2022-08-01T05:33:40;4.38;;;2.47;;
14102;SDS011;7129;48.832;12.472;2022-08-01T05:39:04;2.53;;;2.30;;
14102;SDS011;7129;48.832;12.472;2022-08-01T05:44:52;2.97;;;2.40;;
14102;SDS011;7129;48.832;12.472;2022-08-01T05:50:21;3.17;;;2.88;;
14102;SDS011;7129;48.832;12.472;2022-08-01T05:55:49;5.05;;;2.20;;
14102;SDS011;7129;48.832;12.472;2022-08-01T06:01:03;2.67;;;2.47;;
14102;SDS011;7129;48.832;12.472;2022-08-01T06:06:14;2.70;;;2.50;;
14102;SDS011;7129;48.832;12.472;2022-08-01T06:16:53;3.55;;;2.40;;
14102;SDS011;7129;48.832;12.472;2022-08-01T06:22:21;3.03;;;2.60;;
14102;SDS011;7129;48.832;12.472;2022-08-01T06:38:46;3.63;;;2.33;;
14102;SDS011;7129;48.832;12.472;2022-08-01T06:43:50;3.60;;;2.60;;
14102;SDS011;7129;48.832;12.472;2022-08-01T06:54:25;3.10;;;2.38;;
14102;SDS011;7129;48.832;12.472;2022-08-01T06:59:27;2.40;;;2.10;;
14102;SDS011;7129;48.832;12.472;2022-08-01T07:04:30;2.55;;;2.35;;
14102;SDS011;7129;48.832;12.472;2022-08-01T07:09:34;5.68;;;2.30;;
14102;SDS011;7129;48.832;12.472;2022-08-01T07:14:41;2.47;;;2.28;;
14102;SDS011;7129;48.832;12.472;2022-08-01T07:20:14;2.70;;;2.50;;
14102;SDS011;7129;48.832;12.472;2022-08-01T07:25:20;3.63;;;2.47;;
14102;SDS011;7129;48.832;12.472;2022-08-01T07:30:22;2.60;;;2.10;;
14102;SDS011;7129;48.832;12.472;2022-08-01T07:35:27;3.38;;;2.20;;
14102;SDS011;7129;48.832;12.472;2022-08-01T07:40:52;2.88;;;2.67;;
14102;SDS011;7129;48.832;12.472;2022-08-01T07:45:54;2.30;;;2.10;;
14102;SDS011;7129;48.832;12.472;2022-08-01T07:50:57;2.42;;;2.33;;
14102;SDS011;7129;48.832;12.472;2022-08-01T07:56:00;2.30;;;2.10;;
14102;SDS011;7129;48.832;12.472;2022-08-01T08:01:08;2.13;;;1.52;;
14102;SDS011;7129;48.832;12.472;2022-08-01T08:06:16;3.20;;;2.60;;
14102;SDS011;7129;48.832;12.472;2022-08-01T08:11:28;2.75;;;1.70;;
14102;SDS011;7129;48.832;12.472;2022-08-01T08:16:30;2.78;;;1.80;;
14102;SDS011;7129;48.832;12.472;2022-08-01T08:21:40;1.55;;;1.45;;
14102;SDS011;7129;48.832;12.472;2022-08-01T08:32:16;2.10;;;1.80;;
14102;SDS011;7129;48.832;12.472;2022-08-01T08:37:47;3.25;;;1.88;;
14102;SDS011;7129;48.832;12.472;2022-08-01T09:00:15;2.22;;;1.75;;
14102;SDS011;7129;48.832;12.472;2022-08-01T09:05:50;2.05;;;1.85;;
14102;SDS011;7129;48.832;12.472;2022-08-01T09:10:56;1.85;;;1.70;;
14102;SDS011;7129;48.832;12.472;2022-08-01T09:16:18;3.97;;;1.90;;
14102;SDS011;7129;48.832;12.472;2022-08-01T09:21:59;2.08;;;1.90;;
14102;SDS011;7129;48.832;12.472;2022-08-01T09:27:38;2.17;;;1.77;;
14102;SDS011;7129;48.832;12.472;2022-08-01T09:32:54;2.25;;;1.90;;
14102;SDS011;7129;48.832;12.472;2022-08-01T09:38:11;1.77;;;1.67;;
14102;SDS011;7129;48.832;12.472;2022-08-01T09:56:08;1.73;;;1.63;;
14102;SDS011;7129;48.832;12.472;2022-08-01T10:01:22;2.35;;;1.52;;
14102;SDS011;7129;48.832;12.472;2022-08-01T10:42:27;1.85;;;1.70;;
14102;SDS011;7129;48.832;12.472;2022-08-01T10:47:31;1.92;;;1.50;;
14102;SDS011;7129;48.832;12.472;2022-08-01T10:59:04;2.00;;;1.90;;
14102;SDS011;7129;48.832;12.472;2022-08-01T11:06:40;2.70;;;1.92;;
14102;SDS011;7129;48.832;12.472;2022-08-01T11:40:38;3.08;;;2.40;;
14102;SDS011;7129;48.832;12.472;2022-08-01T11:46:03;41.75;;;4.75;;
14102;SDS011;7129;48.832;12.472;2022-08-01T11:51:28;14.07;;;2.90;;
14102;SDS011;7129;48.832;12.472;2022-08-01T12:55:11;2.22;;;1.60;;
14102;SDS011;7129;48.832;12.472;2022-08-01T13:00:28;25.83;;;2.72;;
14102;SDS011;7129;48.832;12.472;2022-08-01T13:50:16;1.55;;;1.13;;
14102;SDS011;7129;48.832;12.472;2022-08-01T14:00:51;1.20;;;1.10;;
14102;SDS011;7129;48.832;12.472;2022-08-01T14:06:02;1.73;;;1.38;;
14102;SDS011;7129;48.832;12.472;2022-08-01T14:11:04;1.42;;;1.33;;
14102;SDS011;7129;48.832;12.472;2022-08-01T14:21:24;1.27;;;1.08;;
14102;SDS011;7129;48.832;12.472;2022-08-01T14:26:31;1.30;;;1.20;;
14102;SDS011;7129;48.832;12.472;2022-08-01T14:31:34;3.03;;;1.20;;
14102;SDS011;7129;48.832;12.472;2022-08-01T14:42:28;1.75;;;1.20;;
14102;SDS011;7129;48.832;12.472;2022-08-01T14:47:38;2.22;;;1.20;;
14102;SDS011;7129;48.832;12.472;2022-08-01T14:52:50;1.00;;;1.00;;
14102;SDS011;7129;48.832;12.472;2022-08-01T14:57:52;1.55;;;1.17;;
14102;SDS011;7129;48.832;12.472;2022-08-01T15:08:44;3.17;;;1.30;;
14102;SDS011;7129;48.832;12.472;2022-08-01T15:13:46;1.30;;;1.20;;
14102;SDS011;7129;48.832;12.472;2022-08-01T15:19:09;1.00;;;0.98;;
14102;SDS011;7129;48.832;12.472;2022-08-01T15:24:12;2.05;;;1.00;;
14102;SDS011;7129;48.832;12.472;2022-08-01T15:29:14;1.10;;;1.00;;
14102;SDS011;7129;48.832;12.472;2022-08-01T15:34:27;1.15;;;1.13;;
14102;SDS011;7129;48.832;12.472;2022-08-01T15:40:09;1.42;;;0.93;;
14102;SDS011;7129;48.832;12.472;2022-08-01T15:45:21;1.25;;;1.00;;
14102;SDS011;7129;48.832;12.472;2022-08-01T15:50:23;1.75;;;0.98;;
14102;SDS011;7129;48.832;12.472;2022-08-01T16:07:22;0.70;;;0.70;;
14102;SDS011;7129;48.832;12.472;2022-08-01T16:12:24;1.85;;;1.10;;
14102;SDS011;7129;48.832;12.472;2022-08-01T16:17:27;1.42;;;1.10;;
14102;SDS011;7129;48.832;12.472;2022-08-01T16:22:29;0.98;;;0.85;;
14102;SDS011;7129;48.832;12.472;2022-08-01T16:27:31;0.80;;;0.80;;
14102;SDS011;7129;48.832;12.472;2022-08-01T16:32:34;2.30;;;0.82;;
14102;SDS011;7129;48.832;12.472;2022-08-01T16:37:42;0.75;;;0.75;;
14102;SDS011;7129;48.832;12.472;2022-08-01T16:43:08;3.17;;;0.98;;
14102;SDS011;7129;48.832;12.472;2022-08-01T16:48:21;1.27;;;0.95;;
14102;SDS011;7129;48.832;12.472;2022-08-01T16:58:35;0.80;;;0.80;;
14102;SDS011;7129;48.832;12.472;2022-08-01T17:03:47;1.20;;;1.08;;
14102;SDS011;7129;48.832;12.472;2022-08-01T17:08:51;1.77;;;0.80;;
14102;SDS011;7129;48.832;12.472;2022-08-01T17:14:44;5.32;;;1.30;;
14102;SDS011;7129;48.832;12.472;2022-08-01T17:26:33;2.17;;;1.60;;
14102;SDS011;7129;48.832;12.472;2022-08-01T17:31:55;2.45;;;1.70;;
14102;SDS011;7129;48.832;12.472;2022-08-01T17:37:17;4.30;;;1.70;;
14102;SDS011;7129;48.832;12.472;2022-08-01T17:42:47;1.90;;;1.20;;
14102;SDS011;7129;48.832;12.472;2022-08-01T17:48:30;1.10;;;1.10;;
14102;SDS011;7129;48.832;12.472;2022-08-01T17:53:32;1.30;;;1.20;;
14102;SDS011;7129;48.832;12.472;2022-08-01T17:58:38;1.17;;;1.08;;
14102;SDS011;7129;48.832;12.472;2022-08-01T18:03:40;1.27;;;1.23;;
14102;SDS011;7129;48.832;12.472;2022-08-01T18:08:42;2.20;;;1.20;;
14102;SDS011;7129;48.832;12.472;2022-08-01T18:13:47;2.58;;;1.10;;
14102;SDS011;7129;48.832;12.472;2022-08-01T18:18:49;1.30;;;1.00;;
14102;SDS011;7129;48.832;12.472;2022-08-01T18:23:51;1.05;;;0.95;;
14102;SDS011;7129;48.832;12.472;2022-08-01T18:28:56;2.50;;;1.13;;
14102;SDS011;7129;48.832;12.472;2022-08-01T18:33:58;1.65;;;1.05;;
14102;SDS011;7129;48.832;12.472;2022-08-01T18:39:09;1.40;;;1.30;;
14102;SDS011;7129;48.832;12.472;2022-08-01T18:44:24;1.20;;;1.05;;
14102;SDS011;7129;48.832;12.472;2022-08-01T18:49:28;0.90;;;0.90;;
14102;SDS011;7129;48.832;12.472;2022-08-01T18:54:30;3.10;;;1.48;;
14102;SDS011;7129;48.832;12.472;2022-08-01T18:59:41;1.75;;;1.00;;
14102;SDS011;7129;48.832;12.472;2022-08-01T19:04:43;1.27;;;1.17;;
14102;SDS011;7129;48.832;12.472;2022-08-01T19:09:45;1.40;;;1.30;;
14102;SDS011;7129;48.832;12.472;2022-08-01T19:15:01;1.30;;;0.95;;
14102;SDS011;7129;48.832;12.472;2022-08-01T19:20:07;2.17;;;1.27;;
14102;SDS011;7129;48.832;12.472;2022-08-01T19:25:10;1.00;;;1.00;;
14102;SDS011;7129;48.832;12.472;2022-08-01T19:30:16;1.20;;;1.13;;
14102;SDS011;7129;48.832;12.472;2022-08-01T19:35:19;1.20;;;1.13;;
14102;SDS011;7129;48.832;12.472;2022-08-01T19:40:22;1.33;;;1.30;;
14102;SDS011;7129;48.832;12.472;2022-08-01T19:45:28;1.38;;;1.10;;
14102;SDS011;7129;48.832;12.472;2022-08-01T19:50:30;0.90;;;0.90;;
14102;SDS011;7129;48.832;12.472;2022-08-01T19:55:33;2.05;;;1.10;;
14102;SDS011;7129;48.832;12.472;2022-08-01T20:00:43;1.30;;;1.20;;
14102;SDS011;7129;48.832;12.472;2022-08-01T20:06:03;1.48;;;1.08;;
14102;SDS011;7129;48.832;12.472;2022-08-01T20:11:06;1.40;;;1.30;;
14102;SDS011;7129;48.832;12.472;2022-08-01T20:16:13;1.65;;;1.50;;
14102;SDS011;7129;48.832;12.472;2022-08-01T20:21:17;1.83;;;1.45;;
14102;SDS011;7129;48.832;12.472;2022-08-01T20:32:19;2.17;;;1.30;;
14102;SDS011;7129;48.832;12.472;2022-08-01T20:37:29;1.25;;;1.10;;
14102;SDS011;7129;48.832;12.472;2022-08-01T20:53:00;1.55;;;1.40;;
14102;SDS011;7129;48.832;12.472;2022-08-01T20:58:02;2.85;;;1.35;;
14102;SDS011;7129;48.832;12.472;2022-08-01T21:03:05;1.27;;;1.17;;
14102;SDS011;7129;48.832;12.472;2022-08-01T21:08:16;1.67;;;1.30;;
14102;SDS011;7129;48.832;12.472;2022-08-01T21:13:24;2.53;;;1.20;;
14102;SDS011;7129;48.832;12.472;2022-08-01T21:18:36;1.45;;;1.35;;
14102;SDS011;7129;48.832;12.472;2022-08-01T21:23:42;1.60;;;1.50;;
14102;SDS011;7129;48.832;12.472;2022-08-01T21:28:52;1.88;;;1.20;;
14102;SDS011;7129;48.832;12.472;2022-08-01T21:33:57;2.17;;;1.50;;
14102;SDS011;7129;48.832;12.472;2022-08-01T21:50:04;2.75;;;1.60;;
14102;SDS011;7129;48.832;12.472;2022-08-01T21:55:12;1.30;;;1.30;;
14102;SDS011;7129;48.832;12.472;2022-08-01T22:00:20;1.67;;;1.58;;
14102;SDS011;7129;48.832;12.472;2022-08-01T22:05:32;1.95;;;1.40;;
14102;SDS011;7129;48.832;12.472;2022-08-01T22:15:45;2.75;;;1.60;;
14102;SDS011;7129;48.832;12.472;2022-08-01T22:20:49;2.20;;;1.77;;
14102;SDS011;7129;48.832;12.472;2022-08-01T22:25:53;1.60;;;1.50;;
14102;SDS011;7129;48.832;12.472;2022-08-01T22:36:19;1.70;;;1.60;;
14102;SDS011;7129;48.832;12.472;2022-08-01T22:41:24;1.70;;;1.38;;
14102;SDS011;7129;48.832;12.472;2022-08-01T22:46:34;3.25;;;2.17;;
14102;SDS011;7129;48.832;12.472;2022-08-01T22:57:31;1.80;;;1.60;;
14102;SDS011;7129;48.832;12.472;2022-08-01T23:02:42;1.70;;;1.60;;
14102;SDS011;7129;48.832;12.472;2022-08-01T23:07:48;1.85;;;1.75;;
14102;SDS011;7129;48.832;12.472;2022-08-01T23:13:15;1.60;;;1.50;;
14102;SDS011;7129;48.832;12.472;2022-08-01T23:35:47;3.13;;;2.03;;
14102;SDS011;7129;48.832;12.472;2022-08-01T23:41:07;1.88;;;1.77;;
14102;SDS011;7129;48.832;12.472;2022-08-01T23:46:33;2.53;;;2.00;;
14102;SDS011;7129;48.832;12.472;2022-08-01T23:51:39;2.20;;;2.00;;
14102;SDS011;7129;48.832;12.472;2022-08-01T23:56:43;3.40;;;2.22;;
